createdAt,value
2023-02-28T00:01:25.546Z,0.11
2023-02-28T00:03:52.122Z,0.17
2023-02-28T00:06:18.936Z,0.13
2023-02-28T00:08:45.487Z,0.12
2023-02-28T00:11:13.794Z,0.17
2023-02-28T00:13:43.437Z,0.15
2023-02-28T00:16:14.089Z,0.04
2023-02-28T00:18:41.064Z,0.02
2023-02-28T00:21:08.266Z,-0.01
2023-02-28T00:23:35.492Z,-0.05
2023-02-28T00:26:02.221Z,-0.17
2023-02-28T00:28:28.924Z,-0.23
2023-02-28T00:30:55.895Z,-0.28
2023-02-28T00:33:22.958Z,-0.33
2023-02-28T00:35:50.674Z,-0.36
2023-02-28T00:38:17.583Z,-0.35
2023-02-28T00:40:44.595Z,-0.39
2023-02-28T00:43:11.178Z,-0.41
2023-02-28T00:45:37.771Z,-0.42
2023-02-28T00:48:05.221Z,-0.45
2023-02-28T00:50:32.053Z,-0.54
2023-02-28T00:52:58.532Z,-0.53
2023-02-28T00:55:25.026Z,-0.60
2023-02-28T00:57:51.788Z,-0.64
2023-02-28T01:00:19.506Z,-0.72
2023-02-28T01:02:46.283Z,-0.68
2023-02-28T01:05:12.919Z,-0.64
2023-02-28T01:07:39.521Z,-0.60
2023-02-28T01:10:06.456Z,-0.58
2023-02-28T01:12:32.922Z,-0.59
2023-02-28T01:14:59.428Z,-0.66
2023-02-28T01:17:27.375Z,-0.67
2023-02-28T01:19:56.336Z,-0.55
2023-02-28T01:22:22.973Z,-0.39
2023-02-28T01:24:49.459Z,-0.42
2023-02-28T01:27:15.930Z,-0.61
2023-02-28T01:29:42.431Z,-0.63
2023-02-28T01:32:09.394Z,-0.73
2023-02-28T01:34:35.881Z,-0.75
2023-02-28T01:37:02.659Z,-0.74
2023-02-28T01:39:29.623Z,-0.89
2023-02-28T01:41:56.293Z,-0.94
2023-02-28T01:44:56.838Z,-1.01
2023-02-28T01:47:24.439Z,-1.09
2023-02-28T01:49:52.565Z,-1.09
2023-02-28T01:52:20.053Z,-1.13
2023-02-28T01:54:50.982Z,-1.13
2023-02-28T01:57:21.204Z,-1.16
2023-02-28T02:00:01.230Z,-1.21
2023-02-28T02:02:28.692Z,-1.22
2023-02-28T02:04:59.879Z,-1.33
2023-02-28T02:07:27.194Z,-1.41
2023-02-28T02:10:28.293Z,-1.38
2023-02-28T02:13:32.029Z,-1.41
2023-02-28T02:16:21.843Z,-1.47
2023-02-28T02:18:54.012Z,-1.37
2023-02-28T02:22:01.574Z,-1.41
2023-02-28T02:24:48.472Z,-1.44
2023-02-28T02:27:33.449Z,-1.38
2023-02-28T02:30:33.866Z,-1.41
2023-02-28T02:33:24.245Z,-1.49
2023-02-28T02:35:59.912Z,-1.50
2023-02-28T02:38:40.388Z,-1.53
2023-02-28T02:41:15.557Z,-1.50
2023-02-28T02:43:52.563Z,-1.50
2023-02-28T02:46:29.732Z,-1.51
2023-02-28T02:48:57.811Z,-1.56
2023-02-28T02:51:25.686Z,-1.65
2023-02-28T02:53:56.764Z,-1.65
2023-02-28T02:56:27.028Z,-1.68
2023-02-28T02:58:58.258Z,-1.64
2023-02-28T03:01:29.646Z,-1.67
2023-02-28T03:04:02.879Z,-1.71
2023-02-28T03:06:29.770Z,-1.72
2023-02-28T03:08:56.264Z,-1.70
2023-02-28T03:11:22.960Z,-1.81
2023-02-28T03:14:15.061Z,-1.84
2023-02-28T03:16:50.961Z,-1.94
2023-02-28T03:19:39.825Z,-1.97
2023-02-28T03:22:19.137Z,-2.08
2023-02-28T03:25:04.532Z,-2.13
2023-02-28T03:27:56.460Z,-2.23
2023-02-28T03:30:27.433Z,-2.31
2023-02-28T03:32:58.600Z,-2.34
2023-02-28T03:35:27.577Z,-2.36
2023-02-28T03:38:03.676Z,-2.34
2023-02-28T03:40:34.204Z,-2.41
2023-02-28T03:43:05.301Z,-2.56
2023-02-28T03:45:35.097Z,-2.65
2023-02-28T03:48:06.082Z,-2.75
2023-02-28T03:50:39.114Z,-2.80
2023-02-28T03:53:13.381Z,-2.91
2023-02-28T03:55:44.544Z,-2.91
2023-02-28T03:58:26.301Z,-2.99
2023-02-28T04:01:00.743Z,-3.05
2023-02-28T04:03:27.310Z,-3.11
2023-02-28T04:05:55.622Z,-3.13
2023-02-28T04:08:23.284Z,-3.20
2023-02-28T04:10:56.342Z,-3.27
2023-02-28T04:13:23.446Z,-3.34
2023-02-28T04:15:50.109Z,-3.37
2023-02-28T04:18:16.665Z,-3.35
2023-02-28T04:20:43.199Z,-3.37
2023-02-28T04:23:09.757Z,-3.47
2023-02-28T04:25:36.269Z,-3.50
2023-02-28T04:28:02.716Z,-3.53
2023-02-28T04:30:30.643Z,-3.55
2023-02-28T04:32:57.713Z,-3.59
2023-02-28T04:35:24.305Z,-3.51
2023-02-28T04:37:50.868Z,-3.55
2023-02-28T04:40:17.468Z,-3.63
2023-02-28T04:42:43.938Z,-3.58
2023-02-28T04:45:11.299Z,-3.60
2023-02-28T04:47:38.318Z,-3.68
2023-02-28T04:50:05.851Z,-3.77
2023-02-28T04:52:32.367Z,-3.83
2023-02-28T04:54:58.939Z,-3.83
2023-02-28T04:57:25.494Z,-3.89
2023-02-28T04:59:52.011Z,-3.84
2023-02-28T05:02:18.683Z,-3.90
2023-02-28T05:04:45.183Z,-4.01
2023-02-28T05:07:11.683Z,-3.99
2023-02-28T05:09:38.262Z,-4.08
2023-02-28T05:12:04.786Z,-4.07
2023-02-28T05:14:31.742Z,-4.12
2023-02-28T05:16:58.225Z,-4.11
2023-02-28T05:19:24.643Z,-4.10
2023-02-28T05:21:53.310Z,-4.08
2023-02-28T05:24:25.772Z,-4.18
2023-02-28T05:26:53.958Z,-4.12
2023-02-28T05:29:20.912Z,-4.18
2023-02-28T05:31:47.766Z,-4.24
2023-02-28T05:34:16.552Z,-4.27
2023-02-28T05:36:43.342Z,-4.27
2023-02-28T05:39:13.465Z,-4.28
2023-02-28T05:41:43.560Z,-4.34
2023-02-28T05:44:10.877Z,-4.30
2023-02-28T05:46:38.174Z,-4.31
2023-02-28T05:49:05.975Z,-4.25
2023-02-28T05:51:32.801Z,-4.25
2023-02-28T05:54:01.362Z,-4.26
2023-02-28T05:56:28.527Z,-4.26
2023-02-28T05:58:56.241Z,-4.13
2023-02-28T06:01:25.902Z,-4.12
2023-02-28T06:03:53.000Z,-4.06
2023-02-28T06:06:19.895Z,-4.04
2023-02-28T06:08:46.750Z,-4.06
2023-02-28T06:11:13.559Z,-4.06
2023-02-28T06:13:40.045Z,-4.05
2023-02-28T06:16:06.721Z,-3.99
2023-02-28T06:18:33.234Z,-3.97
2023-02-28T06:20:59.746Z,-3.94
2023-02-28T06:23:26.312Z,-3.89
2023-02-28T06:25:54.053Z,-3.73
2023-02-28T06:28:20.540Z,-3.68
2023-02-28T06:30:47.003Z,-3.69
2023-02-28T06:33:13.562Z,-3.65
2023-02-28T06:35:40.118Z,-3.56
2023-02-28T06:38:06.976Z,-3.56
2023-02-28T06:40:36.042Z,-3.54
2023-02-28T06:43:03.100Z,-3.36
2023-02-28T06:45:29.957Z,-3.28
2023-02-28T06:47:56.499Z,-3.24
2023-02-28T06:50:22.983Z,-3.14
2023-02-28T06:52:49.604Z,-3.01
2023-02-28T06:55:16.124Z,-2.97
2023-02-28T06:57:42.777Z,-2.82
2023-02-28T07:00:10.148Z,-2.67
2023-02-28T07:02:38.600Z,-2.51
2023-02-28T07:05:06.779Z,-2.34
2023-02-28T07:07:33.485Z,-2.09
2023-02-28T07:10:00.303Z,-1.88
2023-02-28T07:12:26.927Z,-1.67
2023-02-28T07:14:53.539Z,-1.45
2023-02-28T07:17:20.150Z,-0.40
2023-02-28T07:19:46.683Z,1.49
2023-02-28T07:22:15.570Z,3.05
2023-02-28T07:24:42.364Z,4.67
2023-02-28T07:27:08.814Z,5.26
2023-02-28T07:29:35.304Z,5.62
2023-02-28T07:32:01.873Z,5.16
2023-02-28T07:34:28.390Z,4.41
2023-02-28T07:36:55.145Z,4.21
2023-02-28T07:39:22.737Z,5.05
2023-02-28T07:41:49.302Z,5.55
2023-02-28T07:44:16.136Z,6.49
2023-02-28T07:46:42.667Z,7.21
2023-02-28T07:49:09.196Z,7.14
2023-02-28T07:51:35.660Z,6.88
2023-02-28T07:54:02.267Z,6.41
2023-02-28T07:56:29.171Z,5.33
2023-02-28T07:58:55.973Z,5.18
2023-02-28T08:01:22.825Z,4.93
2023-02-28T08:03:49.344Z,4.38
2023-02-28T08:06:18.768Z,4.18
2023-02-28T08:08:45.448Z,4.98
2023-02-28T08:11:11.976Z,5.37
2023-02-28T08:13:38.489Z,5.07
2023-02-28T08:16:05.167Z,4.96
2023-02-28T08:18:33.307Z,4.95
2023-02-28T08:21:00.252Z,5.91
2023-02-28T08:23:26.895Z,5.87
2023-02-28T08:25:57.227Z,6.60
2023-02-28T08:28:26.994Z,5.91
2023-02-28T08:30:54.704Z,5.02
2023-02-28T08:33:21.608Z,4.96
2023-02-28T08:35:48.670Z,4.97
2023-02-28T08:38:15.350Z,4.77
2023-02-28T08:40:41.870Z,4.69
2023-02-28T08:43:08.309Z,4.41
2023-02-28T08:45:34.769Z,3.79
2023-02-28T08:48:01.337Z,4.21
2023-02-28T08:50:27.960Z,3.52
2023-02-28T08:52:55.015Z,4.20
2023-02-28T08:55:21.518Z,4.67
2023-02-28T08:57:48.062Z,3.41
2023-02-28T09:00:16.293Z,2.86
2023-02-28T09:02:44.626Z,3.18
2023-02-28T09:05:11.442Z,4.01
2023-02-28T09:07:38.523Z,4.62
2023-02-28T09:10:05.353Z,3.72
2023-02-28T09:12:35.389Z,3.40
2023-02-28T09:15:02.373Z,3.14
2023-02-28T09:17:30.655Z,4.11
2023-02-28T09:19:58.364Z,4.88
2023-02-28T09:22:25.155Z,6.08
2023-02-28T09:24:51.608Z,7.10
2023-02-28T09:27:18.288Z,7.81
2023-02-28T09:29:44.843Z,6.61
2023-02-28T09:32:11.441Z,6.56
2023-02-28T09:34:38.528Z,6.26
2023-02-28T09:37:05.463Z,6.55
2023-02-28T09:39:32.728Z,5.82
2023-02-28T09:41:59.758Z,5.58
2023-02-28T09:44:30.237Z,7.41
2023-02-28T09:47:11.509Z,7.80
2023-02-28T09:49:44.592Z,8.77
2023-02-28T09:52:15.146Z,8.13
2023-02-28T09:54:42.357Z,7.42
2023-02-28T09:57:16.560Z,8.09
2023-02-28T10:00:01.684Z,8.54
2023-02-28T10:03:13.263Z,9.05
2023-02-28T10:05:44.374Z,10.17
2023-02-28T10:08:35.106Z,7.75
2023-02-28T10:11:05.350Z,7.19
2023-02-28T10:13:40.676Z,9.49
2023-02-28T10:16:12.806Z,9.18
2023-02-28T10:19:02.255Z,8.56
2023-02-28T10:21:39.244Z,7.13
2023-02-28T10:24:31.934Z,7.74
2023-02-28T10:27:07.751Z,8.06
2023-02-28T10:29:34.390Z,8.22
2023-02-28T10:32:03.112Z,8.09
2023-02-28T10:34:29.596Z,9.76
2023-02-28T10:36:56.836Z,9.87
2023-02-28T10:39:38.584Z,10.29
2023-02-28T10:42:05.548Z,9.76
2023-02-28T10:44:32.218Z,9.13
2023-02-28T10:46:58.846Z,8.30
2023-02-28T10:49:31.657Z,9.34
2023-02-28T10:52:01.766Z,8.48
2023-02-28T10:54:36.415Z,7.63
2023-02-28T10:57:25.365Z,5.56
2023-02-28T10:59:53.555Z,4.93
2023-02-28T11:02:39.103Z,5.01
2023-02-28T11:05:31.623Z,4.97
2023-02-28T11:08:22.143Z,4.69
2023-02-28T11:10:55.738Z,5.77
2023-02-28T11:13:27.264Z,6.16
2023-02-28T11:15:56.873Z,7.46
2023-02-28T11:18:27.795Z,10.17
2023-02-28T11:20:56.622Z,9.68
2023-02-28T11:23:26.866Z,10.62
2023-02-28T11:25:54.805Z,12.15
2023-02-28T11:28:35.637Z,9.61
2023-02-28T11:31:06.841Z,10.37
2023-02-28T11:33:41.502Z,10.25
2023-02-28T11:36:15.092Z,11.85
2023-02-28T11:38:41.901Z,12.43
2023-02-28T11:41:32.239Z,11.39
2023-02-28T11:44:15.199Z,9.87
2023-02-28T11:46:54.743Z,12.45
2023-02-28T11:49:40.121Z,13.42
2023-02-28T11:52:22.293Z,12.09
2023-02-28T11:54:51.772Z,12.89
2023-02-28T11:57:46.323Z,11.64
2023-02-28T12:00:38.611Z,9.55
2023-02-28T12:03:27.221Z,8.17
2023-02-28T12:05:53.780Z,7.45
2023-02-28T12:08:28.311Z,8.20
2023-02-28T12:11:18.082Z,9.57
2023-02-28T12:14:02.697Z,9.49
2023-02-28T12:16:51.138Z,10.06
2023-02-28T12:19:49.600Z,8.90
2023-02-28T12:22:31.471Z,8.77
2023-02-28T12:25:07.116Z,8.83
2023-02-28T12:27:36.564Z,9.64
2023-02-28T12:30:08.186Z,9.27
2023-02-28T12:32:38.892Z,9.33
2023-02-28T12:35:13.102Z,6.90
2023-02-28T12:37:56.010Z,8.68
2023-02-28T12:40:24.744Z,8.82
2023-02-28T12:42:55.087Z,7.38
2023-02-28T12:45:39.397Z,7.07
2023-02-28T12:48:11.206Z,6.10
2023-02-28T12:50:38.136Z,6.24
2023-02-28T12:53:09.618Z,6.13
2023-02-28T12:55:54.701Z,8.24
2023-02-28T12:58:28.956Z,8.83
2023-02-28T13:01:14.496Z,6.69
2023-02-28T13:04:18.553Z,7.44
2023-02-28T13:07:08.792Z,7.49
2023-02-28T13:09:35.586Z,8.36
2023-02-28T13:12:02.037Z,7.83
2023-02-28T13:14:38.787Z,6.65
2023-02-28T13:17:09.883Z,6.53
2023-02-28T13:19:43.088Z,6.06
2023-02-28T13:22:35.933Z,7.08
2023-02-28T13:25:02.580Z,7.09
2023-02-28T13:27:40.093Z,6.77
2023-02-28T13:30:44.582Z,7.45
2023-02-28T13:33:35.295Z,6.49
2023-02-28T13:36:14.525Z,7.92
2023-02-28T13:39:02.762Z,6.18
2023-02-28T13:41:32.541Z,7.03
2023-02-28T13:44:04.169Z,7.07
2023-02-28T13:46:31.677Z,6.66
2023-02-28T13:49:24.308Z,6.56
2023-02-28T13:51:52.346Z,6.97
2023-02-28T13:54:36.774Z,6.53
2023-02-28T13:57:28.389Z,6.12
2023-02-28T14:00:25.335Z,5.77
2023-02-28T14:03:10.454Z,5.77
2023-02-28T14:05:37.398Z,6.45
2023-02-28T14:08:16.276Z,7.23
2023-02-28T14:10:48.108Z,7.62
2023-02-28T14:13:45.862Z,7.64
2023-02-28T14:16:19.025Z,7.17
2023-02-28T14:19:00.261Z,6.63
2023-02-28T14:21:36.605Z,5.99
2023-02-28T14:24:54.373Z,6.48
2023-02-28T14:27:49.692Z,5.15
2023-02-28T14:30:39.219Z,6.05
2023-02-28T14:33:24.543Z,6.46
2023-02-28T14:36:11.759Z,6.80
2023-02-28T14:38:44.093Z,5.78
2023-02-28T14:41:18.027Z,6.48
2023-02-28T14:43:53.719Z,5.67
2023-02-28T14:46:21.008Z,5.81
2023-02-28T14:48:49.281Z,5.94
2023-02-28T14:51:22.209Z,5.65
2023-02-28T14:53:51.809Z,5.33
2023-02-28T14:56:38.348Z,5.45
2023-02-28T14:59:06.382Z,4.98
2023-02-28T15:01:34.540Z,5.06
2023-02-28T15:04:05.742Z,5.02
2023-02-28T15:06:33.008Z,5.13
2023-02-28T15:09:15.043Z,5.47
2023-02-28T15:11:42.267Z,5.16
2023-02-28T15:14:16.319Z,5.19
2023-02-28T15:16:44.417Z,4.48
2023-02-28T15:19:30.662Z,4.30
2023-02-28T15:22:05.795Z,4.42
2023-02-28T15:24:45.039Z,4.43
2023-02-28T15:27:39.519Z,4.16
2023-02-28T15:30:09.473Z,4.56
2023-02-28T15:32:39.684Z,4.47
2023-02-28T15:35:23.642Z,4.64
2023-02-28T15:37:52.858Z,4.67
2023-02-28T15:40:31.139Z,4.30
2023-02-28T15:43:06.139Z,4.55
2023-02-28T15:45:41.844Z,4.39
2023-02-28T15:48:38.795Z,4.23
2023-02-28T15:51:15.756Z,3.97
2023-02-28T15:53:48.822Z,3.92
2023-02-28T15:56:25.866Z,3.97
2023-02-28T15:59:00.869Z,3.78
2023-02-28T16:01:33.757Z,3.89
2023-02-28T16:04:05.950Z,3.81
2023-02-28T16:06:35.315Z,3.73
2023-02-28T16:09:02.463Z,3.52
2023-02-28T16:11:29.507Z,3.26
2023-02-28T16:13:56.242Z,3.29
2023-02-28T16:16:25.293Z,3.13
2023-02-28T16:18:51.847Z,3.02
2023-02-28T16:21:18.587Z,3.10
2023-02-28T16:23:45.145Z,2.95
2023-02-28T16:26:20.369Z,3.04
2023-02-28T16:28:47.180Z,3.00
2023-02-28T16:31:17.517Z,3.09
2023-02-28T16:33:45.740Z,2.80
2023-02-28T16:36:18.012Z,2.75
2023-02-28T16:38:44.776Z,2.63
2023-02-28T16:41:17.596Z,2.47
2023-02-28T16:43:44.706Z,2.45
2023-02-28T16:46:13.528Z,2.29
2023-02-28T16:48:41.584Z,2.33
2023-02-28T16:51:16.010Z,2.25
2023-02-28T16:53:43.379Z,2.14
2023-02-28T16:56:19.458Z,2.08
2023-02-28T16:58:46.439Z,2.03
2023-02-28T17:01:13.264Z,1.94
2023-02-28T17:03:41.280Z,1.84
2023-02-28T17:06:18.182Z,1.64
2023-02-28T17:08:44.623Z,1.60
2023-02-28T17:11:11.138Z,1.49
2023-02-28T17:13:37.678Z,1.38
2023-02-28T17:16:04.642Z,1.34
2023-02-28T17:18:34.740Z,1.21
2023-02-28T17:21:02.040Z,1.10
2023-02-28T17:23:28.470Z,1.04
2023-02-28T17:25:57.793Z,1.02
2023-02-28T17:28:24.933Z,0.93
2023-02-28T17:30:51.775Z,0.85
2023-02-28T17:33:18.810Z,0.75
2023-02-28T17:35:45.514Z,0.68
2023-02-28T17:38:18.177Z,0.61
2023-02-28T17:40:45.199Z,0.58
2023-02-28T17:43:12.810Z,0.60
2023-02-28T17:45:39.626Z,0.58
2023-02-28T17:48:07.114Z,0.54
2023-02-28T17:50:34.117Z,0.45
2023-02-28T17:53:00.767Z,0.38
2023-02-28T17:55:27.443Z,0.30
2023-02-28T17:57:54.015Z,0.29
2023-02-28T18:00:20.949Z,0.21
2023-02-28T18:02:47.739Z,0.20
2023-02-28T18:05:14.285Z,0.11
2023-02-28T18:07:40.955Z,0.07
2023-02-28T18:10:22.485Z,0.05
2023-02-28T18:12:51.137Z,-0.02
2023-02-28T18:15:20.971Z,-0.03
2023-02-28T18:17:48.674Z,-0.08
2023-02-28T18:20:15.331Z,-0.16
2023-02-28T18:22:42.849Z,-0.22
2023-02-28T18:25:14.592Z,-0.24
2023-02-28T18:27:53.868Z,-0.34
2023-02-28T18:30:21.871Z,-0.30
2023-02-28T18:32:48.550Z,-0.32
2023-02-28T18:35:15.091Z,-0.37
2023-02-28T18:37:41.675Z,-0.44
2023-02-28T18:40:09.035Z,-0.47
2023-02-28T18:42:35.661Z,-0.53
2023-02-28T18:45:02.162Z,-0.51
2023-02-28T18:47:28.716Z,-0.50
2023-02-28T18:49:55.212Z,-0.52
2023-02-28T18:52:21.921Z,-0.57
2023-02-28T18:54:48.390Z,-0.63
2023-02-28T18:57:15.249Z,-0.68
2023-02-28T18:59:42.002Z,-0.77
2023-02-28T19:02:09.167Z,-0.80
2023-02-28T19:04:35.640Z,-0.91
2023-02-28T19:07:02.985Z,-1.02
2023-02-28T19:09:29.482Z,-1.05
2023-02-28T19:11:56.109Z,-1.08
2023-02-28T19:14:22.745Z,-1.06
2023-02-28T19:16:50.760Z,-1.06
2023-02-28T19:19:17.377Z,-1.12
2023-02-28T19:21:44.056Z,-1.12
2023-02-28T19:24:10.575Z,-1.22
2023-02-28T19:26:37.680Z,-1.25
2023-02-28T19:29:05.072Z,-1.36
2023-02-28T19:31:31.923Z,-1.43
2023-02-28T19:33:59.172Z,-1.49
2023-02-28T19:36:26.036Z,-1.52
2023-02-28T19:38:53.211Z,-1.56
2023-02-28T19:41:20.271Z,-1.60
2023-02-28T19:43:46.952Z,-1.62
2023-02-28T19:46:13.585Z,-1.60
2023-02-28T19:48:42.353Z,-1.65
2023-02-28T19:51:11.622Z,-1.64
2023-02-28T19:53:39.859Z,-1.62
2023-02-28T19:56:07.031Z,-1.63
2023-02-28T19:58:34.037Z,-1.58
2023-02-28T20:01:11.631Z,-1.65
2023-02-28T20:03:38.155Z,-1.70
2023-02-28T20:06:11.361Z,-1.68
2023-02-28T20:08:38.557Z,-1.64
2023-02-28T20:11:07.517Z,-1.67
2023-02-28T20:13:34.738Z,-1.61
2023-02-28T20:16:02.638Z,-1.48
2023-02-28T20:18:29.444Z,-1.43
2023-02-28T20:20:56.277Z,-1.48
2023-02-28T20:23:22.809Z,-1.51
2023-02-28T20:25:51.386Z,-1.54
2023-02-28T20:28:19.343Z,-1.51
2023-02-28T20:30:48.855Z,-1.46
2023-02-28T20:33:17.460Z,-1.50
2023-02-28T20:35:44.635Z,-1.45
2023-02-28T20:38:11.684Z,-1.49
2023-02-28T20:40:38.804Z,-1.58
2023-02-28T20:43:05.458Z,-1.64
2023-02-28T20:45:31.997Z,-1.70
2023-02-28T20:47:58.565Z,-1.73
2023-02-28T20:50:25.041Z,-1.76
2023-02-28T20:52:51.818Z,-1.89
2023-02-28T20:55:18.530Z,-1.93
2023-02-28T20:57:45.521Z,-1.98
2023-02-28T21:00:16.290Z,-2.09
2023-02-28T21:02:42.791Z,-2.13
2023-02-28T21:05:09.715Z,-2.18
2023-02-28T21:07:36.363Z,-2.20
2023-02-28T21:10:02.974Z,-2.28
2023-02-28T21:12:29.505Z,-2.23
2023-02-28T21:14:56.072Z,-2.25
2023-02-28T21:17:22.642Z,-2.31
2023-02-28T21:19:49.112Z,-2.33
2023-02-28T21:22:15.854Z,-2.44
2023-02-28T21:24:42.388Z,-2.49
2023-02-28T21:27:08.792Z,-2.49
2023-02-28T21:29:35.276Z,-2.46
2023-02-28T21:32:02.352Z,-2.51
2023-02-28T21:34:28.827Z,-2.58
2023-02-28T21:36:55.405Z,-2.67
2023-02-28T21:39:25.921Z,-2.61
2023-02-28T21:41:53.441Z,-2.68
2023-02-28T21:44:21.373Z,-2.69
2023-02-28T21:46:49.928Z,-2.76
2023-02-28T21:49:16.603Z,-2.79
2023-02-28T21:51:43.400Z,-2.75
2023-02-28T21:54:10.958Z,-2.79
2023-02-28T21:56:37.947Z,-2.85
2023-02-28T21:59:06.952Z,-2.82
2023-02-28T22:01:36.016Z,-2.91
2023-02-28T22:04:04.725Z,-2.97
2023-02-28T22:06:34.342Z,-2.98
2023-02-28T22:09:04.681Z,-3.04
2023-02-28T22:11:32.265Z,-3.07
2023-02-28T22:13:59.166Z,-3.11
2023-02-28T22:16:29.531Z,-3.09
2023-02-28T22:18:58.096Z,-3.15
2023-02-28T22:21:25.067Z,-3.18
2023-02-28T22:23:51.688Z,-3.23
2023-02-28T22:26:21.159Z,-3.24
2023-02-28T22:28:47.926Z,-3.21
2023-02-28T22:31:23.344Z,-3.27
2023-02-28T22:33:51.112Z,-3.28
2023-02-28T22:36:18.717Z,-3.33
2023-02-28T22:38:46.417Z,-3.33
2023-02-28T22:41:13.073Z,-3.24
2023-02-28T22:43:40.612Z,-3.29
2023-02-28T22:46:08.964Z,-3.32
2023-02-28T22:48:36.536Z,-3.38
2023-02-28T22:51:05.089Z,-3.43
2023-02-28T22:53:35.863Z,-3.39
2023-02-28T22:56:02.561Z,-3.37
2023-02-28T22:58:29.964Z,-3.41
2023-02-28T23:00:56.617Z,-3.46
2023-02-28T23:03:24.788Z,-3.45
2023-02-28T23:05:52.583Z,-3.40
2023-02-28T23:08:23.279Z,-3.34
2023-02-28T23:10:50.923Z,-3.40
2023-02-28T23:13:18.745Z,-3.30
2023-02-28T23:15:46.201Z,-3.28
2023-02-28T23:18:13.810Z,-3.30
2023-02-28T23:20:40.271Z,-3.35
2023-02-28T23:23:07.072Z,-3.39
2023-02-28T23:25:33.545Z,-3.40
2023-02-28T23:28:00.093Z,-3.42
2023-02-28T23:30:27.205Z,-3.41
2023-02-28T23:32:53.879Z,-3.45
2023-02-28T23:35:20.478Z,-3.47
2023-02-28T23:37:46.971Z,-3.51
2023-02-28T23:40:14.088Z,-3.56
2023-02-28T23:42:40.670Z,-3.59
2023-02-28T23:45:07.791Z,-3.64
2023-02-28T23:47:34.365Z,-3.58
2023-02-28T23:50:00.893Z,-3.64
2023-02-28T23:52:27.389Z,-3.63
2023-02-28T23:54:53.967Z,-3.65
2023-02-28T23:57:20.452Z,-3.66
2023-02-28T23:59:47.080Z,-3.68
